Aplin, Arkansas
Current Conditions -  °F | °C
As of 2:27 PM on Sunday 23 Nov 2014 (Local Time) from KRUE Reporting Station
Overcast Overcast  
Wind Chill: 62°   Ceiling: 1400
Heat Index: 62°   Visibility: 10mi
Dew Point: 60°   Wind: 3mph
Humidity: 93%   Direction: 90°E
Pressure: 29.33"   Gusts: NA
Location:  34.9067°N, 93.0072°W
Report Text: KRUE 232027Z AUTO 09003KT 10SM SCT008 BKN014 OVC021 17/16 A2933 RMK AO2 T01670156
Loading
Personal Weather Stations






























Interactive Weather Map New forecast layout! Learn more

10-Day Weather Forecast

Advertisements
Track Severe Weather on mobile